| time (UTC) | temp F | wind direction | speed knots | gust knots | rain 1hr in | rain 24hr in | rain mn in | humidity % | barometer mb |
| 20260510044533 | 48 | 200 | 3.5 | 7.8 | 0.05 | 0.32 | 0.05 | 92 | 953.0 |
| 20260510043027 | 48 | 254 | 7.0 | 9.6 | 0.02 | 0.28 | 0.02 | 92 | 953.3 |
| 20260510041524 | 49 | 289 | 5.2 | 11.3 | 0.00 | 0.27 | 0.00 | 92 | 953.2 |
| 20260510040024 | 49 | 265 | 5.2 | 7.8 | 0.00 | 0.27 | 0.00 | 92 | 953.2 |
| 20260510034520 | 49 | 275 | 6.1 | 12.2 | 0.00 | 0.27 | 0.27 | 93 | 953.2 |
| 20260510033019 | 49 | 192 | 3.5 | 7.0 | 0.00 | 0.27 | 0.27 | 92 | 952.0 |
| 20260510031519 | 49 | 192 | 3.5 | 7.0 | 0.00 | 0.27 | 0.27 | 92 | 952.0 |
| 20260510030018 | 49 | 219 | 5.2 | 7.0 | 0.00 | 0.27 | 0.27 | 92 | 952.0 |
| 20260510024517 | 49 | 202 | 4.3 | 7.0 | 0.00 | 0.27 | 0.27 | 92 | 952.1 |
| 20260510023018 | 49 | 202 | 4.3 | 9.6 | 0.00 | 0.27 | 0.27 | 92 | 951.7 |
| 20260510021617 | 49 | 156 | 3.5 | 8.7 | 0.00 | 0.27 | 0.27 | 92 | 951.5 |
| 20260510020016 | 49 | 184 | 4.3 | 8.7 | 0.00 | 0.27 | 0.27 | 92 | 951.6 |
| 20260510014517 | 49 | 194 | 5.2 | 8.7 | 0.00 | 0.27 | 0.27 | 92 | 951.3 |
| 20260510013020 | 49 | 198 | 4.3 | 8.7 | 0.00 | 0.27 | 0.27 | 92 | 951.2 |
| 20260510011520 | 49 | 196 | 5.2 | 8.7 | 0.00 | 0.27 | 0.27 | 92 | 951.3 |
| 20260510010014 | 50 | 198 | 4.3 | 10.4 | 0.00 | 0.27 | 0.27 | 91 | 951.0 |
| 20260510004516 | 50 | 196 | 4.3 | 8.7 | 0.00 | 0.27 | 0.27 | 91 | 950.9 |
| 20260510003012 | 50 | 169 | 3.5 | 7.0 | 0.00 | 0.27 | 0.27 | 91 | 950.8 |
| 20260510001512 | 50 | 184 | 3.5 | 6.1 | 0.00 | 0.27 | 0.27 | 90 | 950.8 |
| 20260510000011 | 51 | 180 | 3.5 | 5.2 | 0.00 | 0.27 | 0.27 | 90 | 950.8 |
| 20260509234518 | 51 | 193 | 3.5 | 6.1 | 0.00 | 0.27 | 0.27 | 89 | 950.5 |
| 20260509233023 | 52 | 187 | 4.3 | 9.6 | 0.00 | 0.27 | 0.27 | 89 | 950.5 |
| 20260509231508 | 52 | 185 | 5.2 | 9.6 | 0.00 | 0.27 | 0.27 | 90 | 950.2 |
| 20260509230008 | 52 | 203 | 4.3 | 8.7 | 0.00 | 0.27 | 0.27 | 90 | 950.3 |
| 20260509224508 | 52 | 186 | 4.3 | 9.6 | 0.00 | 0.27 | 0.27 | 90 | 950.5 |
| 20260509223006 | 52 | 194 | 6.1 | 11.3 | 0.00 | 0.27 | 0.27 | 90 | 950.6 |
| 20260509221505 | 52 | 223 | 5.2 | 8.7 | 0.00 | 0.27 | 0.27 | 91 | 950.5 |
| 20260509220006 | 52 | 196 | 6.1 | 10.4 | 0.00 | 0.27 | 0.27 | 91 | 950.5 |
| 20260509214601 | 52 | 186 | 4.3 | 10.4 | 0.00 | 0.27 | 0.27 | 91 | 950.5 |
| 20260509213054 | 51 | 167 | 6.1 | 10.4 | 0.00 | 0.27 | 0.27 | 92 | 950.7 |
| 20260509211559 | 51 | 204 | 5.2 | 9.6 | 0.00 | 0.27 | 0.27 | 92 | 950.7 |
| 20260509210104 | 51 | 177 | 6.1 | 10.4 | 0.00 | 0.27 | 0.27 | 92 | 950.8 |
| 20260509204547 | 51 | 201 | 6.1 | 12.2 | 0.00 | 0.27 | 0.27 | 92 | 950.9 |
| 20260509203046 | 50 | 212 | 6.1 | 9.6 | 0.00 | 0.27 | 0.27 | 92 | 951.1 |
| 20260509201554 | 50 | 204 | 6.1 | 9.6 | 0.00 | 0.27 | 0.27 | 92 | 951.2 |
| 20260509200045 | 50 | 207 | 5.2 | 8.7 | 0.00 | 0.27 | 0.27 | 92 | 951.3 |
| 20260509194540 | 50 | 207 | 6.1 | 10.4 | 0.00 | 0.27 | 0.27 | 92 | 951.6 |
| 20260509193044 | 50 | 191 | 5.2 | 10.4 | 0.00 | 0.27 | 0.27 | 92 | 951.7 |
| 20260509191539 | 50 | 222 | 7.0 | 10.4 | 0.00 | 0.27 | 0.27 | 92 | 951.8 |
| 20260509190035 | 49 | 203 | 3.5 | 7.8 | 0.00 | 0.27 | 0.27 | 92 | 951.9 |
| 20260509184540 | 49 | 201 | 4.3 | 8.7 | 0.00 | 0.27 | 0.27 | 93 | 951.8 |
| 20260509183035 | 49 | 190 | 4.3 | 8.7 | 0.00 | 0.27 | 0.27 | 93 | 951.8 |
| 20260509181529 | 49 | 193 | 5.2 | 11.3 | 0.00 | 0.27 | 0.27 | 93 | 951.8 |
| 20260509180028 | 49 | 177 | 5.2 | 7.8 | 0.00 | 0.27 | 0.27 | 93 | 951.8 |
| 20260509174527 | 49 | 179 | 5.2 | 9.6 | 0.00 | 0.27 | 0.27 | 93 | 951.7 |
| 20260509173029 | 49 | 198 | 5.2 | 8.7 | 0.00 | 0.27 | 0.27 | 93 | 951.7 |
| 20260509171532 | 48 | 210 | 5.2 | 7.8 | 0.00 | 0.27 | 0.27 | 93 | 951.7 |
| 20260509170023 | 48 | 197 | 2.6 | 9.6 | 0.01 | 0.27 | 0.27 | 93 | 951.8 |
| 20260509164621 | 48 | 206 | 3.5 | 6.1 | 0.01 | 0.27 | 0.27 | 93 | 952.0 |
| 20260509163034 | 49 | 191 | 4.3 | 7.8 | 0.01 | 0.27 | 0.27 | 93 | 951.9 |
| 20260509161523 | 48 | 189 | 6.1 | 10.4 | 0.02 | 0.27 | 0.27 | 93 | 952.1 |
| 20260509160016 | 48 | 173 | 5.2 | 9.6 | 0.01 | 0.26 | 0.26 | 93 | 952.1 |
| 20260509154515 | 48 | 173 | 3.5 | 8.7 | 0.02 | 0.26 | 0.26 | 93 | 952.2 |
| 20260509153020 | 48 | 175 | 2.6 | 8.7 | 0.03 | 0.26 | 0.26 | 93 | 952.3 |
| 20260509151511 | 48 | 179 | 4.3 | 7.8 | 0.02 | 0.25 | 0.25 | 93 | 952.6 |
| 20260509150006 | 47 | 165 | 1.7 | 7.8 | 0.04 | 0.27 | 0.25 | 93 | 952.7 |
| 20260509144504 | 47 | 185 | 1.7 | 7.8 | 0.03 | 0.26 | 0.24 | 93 | 952.7 |
| 20260509143002 | 47 | 171 | 1.7 | 7.8 | 0.04 | 0.25 | 0.23 | 93 | 952.8 |
| 20260509141600 | 47 | 138 | 3.5 | 8.7 | 0.05 | 0.25 | 0.23 | 93 | 952.8 |
| 20260509141502 | 47 | 175 | 4.3 | 8.7 | 0.05 | 0.25 | 0.23 | 93 | 952.8 |
| 20260509140105 | 47 | 160 | 2.6 | 5.2 | 0.04 | 0.23 | 0.21 | 93 | 952.7 |
| 20260509134558 | 46 | 192 | 2.6 | 7.8 | 0.05 | 0.24 | 0.21 | 93 | 952.9 |
| 20260509133105 | 46 | 155 | 2.6 | 7.8 | 0.05 | 0.22 | 0.19 | 93 | 953.0 |
| 20260509131556 | 46 | 178 | 1.7 | 5.2 | 0.05 | 0.21 | 0.18 | 93 | 953.0 |
| 20260509130057 | 46 | 172 | 2.6 | 6.1 | 0.05 | 0.20 | 0.17 | 93 | 953.1 |
| 20260509124558 | 46 | 190 | 1.7 | 6.1 | 0.06 | 0.19 | 0.16 | 93 | 953.0 |
| 20260509123101 | 45 | 173 | 3.5 | 6.1 | 0.07 | 0.17 | 0.14 | 93 | 953.0 |
| 20260509121558 | 45 | 191 | 2.6 | 6.1 | 0.08 | 0.16 | 0.13 | 93 | 953.0 |
| 20260509120048 | 45 | 185 | 3.5 | 5.2 | 0.09 | 0.15 | 0.12 | 92 | 953.4 |
| 20260509114557 | 45 | 174 | 3.5 | 6.1 | 0.08 | 0.13 | 0.10 | 92 | 953.3 |
| 20260509113041 | 44 | 169 | 5.2 | 9.6 | 0.06 | 0.10 | 0.07 | 92 | 953.3 |
| 20260509111540 | 44 | 157 | 3.5 | 6.1 | 0.04 | 0.08 | 0.05 | 92 | 953.2 |
| 20260509110039 | 44 | 168 | 2.6 | 6.1 | 0.02 | 0.06 | 0.03 | 92 | 953.2 |
| 20260509104536 | 43 | 174 | 3.5 | 7.0 | 0.01 | 0.05 | 0.02 | 92 | 953.1 |
| 20260509103034 | 43 | 197 | 2.6 | 6.1 | 0.00 | 0.04 | 0.01 | 92 | 953.0 |
| 20260509101536 | 43 | 195 | 3.5 | 7.0 | 0.00 | 0.04 | 0.01 | 92 | 953.0 |
| 20260509100032 | 43 | 184 | 4.3 | 6.1 | 0.00 | 0.04 | 0.01 | 91 | 952.9 |
| 20260509094540 | 43 | 198 | 3.5 | 6.1 | 0.00 | 0.04 | 0.01 | 91 | 953.0 |
| 20260509093028 | 43 | 192 | 2.6 | 7.0 | 0.00 | 0.04 | 0.01 | 91 | 953.1 |
| 20260509091528 | 43 | 171 | 2.6 | 7.0 | 0.00 | 0.04 | 0.01 | 90 | 953.1 |
| 20260509090047 | 43 | 182 | 1.7 | 7.0 | 0.00 | 0.04 | 0.01 | 90 | 953.2 |
| 20260509084529 | 43 | 182 | 3.5 | 5.2 | 0.00 | 0.04 | 0.01 | 89 | 953.2 |
| 20260509083041 | 42 | 169 | 0.9 | 4.3 | 0.00 | 0.04 | 0.01 | 88 | 953.2 |
| 20260509081527 | 42 | 167 | 2.6 | 5.2 | 0.00 | 0.04 | 0.01 | 87 | 953.4 |
| 20260509080118 | 42 | 192 | 1.7 | 5.2 | 0.00 | 0.04 | 0.01 | 86 | 953.4 |
| 20260509074528 | 42 | 178 | 2.6 | 3.5 | 0.01 | 0.04 | 0.01 | 85 | 953.5 |
| 20260509073018 | 42 | 178 | 0.9 | 3.5 | 0.01 | 0.04 | 0.01 | 85 | 953.5 |
| 20260509071518 | 42 | 192 | 1.7 | 2.6 | 0.01 | 0.04 | 0.01 | 84 | 953.5 |
| 20260509070013 | 42 | 176 | 2.6 | 4.3 | 0.00 | 0.03 | 0.00 | 83 | 953.4 |
| 20260509064511 | 42 | 178 | 1.7 | 4.3 | 0.00 | 0.03 | 0.00 | 82 | 953.6 |
| 20260509063010 | 43 | 156 | 0.9 | 2.6 | 0.00 | 0.03 | 0.00 | 81 | 953.6 |
| 20260509061508 | 43 | 135 | 0.0 | 2.6 | 0.00 | 0.03 | 0.00 | 80 | 953.7 |
| 20260509060008 | 42 | 76 | 0.9 | 2.6 | 0.00 | 0.03 | 0.00 | 79 | 954.0 |
| 20260509054505 | 42 | 65 | 0.9 | 1.7 | 0.00 | 0.03 | 0.00 | 77 | 954.1 |
| 20260509053007 | 42 | 65 | 0.9 | 1.7 | 0.00 | 0.03 | 0.00 | 77 | 954.1 |
| 20260509051507 | 42 | 64 | 1.7 | 3.5 | 0.00 | 0.03 | 0.00 | 77 | 954.1 |
| 20260509050010 | 43 | 67 | 1.7 | 3.5 | 0.00 | 0.03 | 0.00 | 77 | 954.0 |